sensor_id;sensor_type;location;lat;lon;timestamp;P1;durP1;ratioP1;P2;durP2;ratioP2
46597;SDS011;32318;48.858;8.252;2022-07-06T00:01:48;3.28;;;1.15;;
46597;SDS011;32318;48.858;8.252;2022-07-06T00:09:48;3.90;;;1.50;;
46597;SDS011;32318;48.858;8.252;2022-07-06T00:17:48;8.10;;;1.67;;
46597;SDS011;32318;48.858;8.252;2022-07-06T00:25:49;7.57;;;1.60;;
46597;SDS011;32318;48.858;8.252;2022-07-06T00:33:49;3.97;;;1.58;;
46597;SDS011;32318;48.858;8.252;2022-07-06T00:41:49;7.25;;;1.65;;
46597;SDS011;32318;48.858;8.252;2022-07-06T00:49:50;4.05;;;1.80;;
46597;SDS011;32318;48.858;8.252;2022-07-06T00:58:09;6.88;;;1.80;;
46597;SDS011;32318;48.858;8.252;2022-07-06T01:06:09;2.80;;;1.77;;
46597;SDS011;32318;48.858;8.252;2022-07-06T01:14:10;6.77;;;1.90;;
46597;SDS011;32318;48.858;8.252;2022-07-06T01:22:12;3.22;;;1.60;;
46597;SDS011;32318;48.858;8.252;2022-07-06T01:30:13;6.30;;;1.67;;
46597;SDS011;32318;48.858;8.252;2022-07-06T01:38:15;2.53;;;1.38;;
46597;SDS011;32318;48.858;8.252;2022-07-06T01:46:15;3.38;;;1.50;;
46597;SDS011;32318;48.858;8.252;2022-07-06T01:54:16;7.25;;;1.88;;
46597;SDS011;32318;48.858;8.252;2022-07-06T02:02:16;9.57;;;1.80;;
46597;SDS011;32318;48.858;8.252;2022-07-06T02:10:17;5.32;;;1.85;;
46597;SDS011;32318;48.858;8.252;2022-07-06T02:18:17;7.50;;;1.70;;
46597;SDS011;32318;48.858;8.252;2022-07-06T02:26:18;3.33;;;1.60;;
46597;SDS011;32318;48.858;8.252;2022-07-06T02:34:18;4.75;;;1.85;;
46597;SDS011;32318;48.858;8.252;2022-07-06T02:42:19;5.10;;;1.80;;
46597;SDS011;32318;48.858;8.252;2022-07-06T02:50:19;7.95;;;2.03;;
46597;SDS011;32318;48.858;8.252;2022-07-06T02:58:19;6.97;;;1.90;;
46597;SDS011;32318;48.858;8.252;2022-07-06T03:06:19;5.85;;;2.45;;
46597;SDS011;32318;48.858;8.252;2022-07-06T03:14:20;6.38;;;2.35;;
46597;SDS011;32318;48.858;8.252;2022-07-06T03:22:20;18.33;;;2.20;;
46597;SDS011;32318;48.858;8.252;2022-07-06T03:30:20;7.03;;;1.95;;
46597;SDS011;32318;48.858;8.252;2022-07-06T03:38:20;6.07;;;2.80;;
46597;SDS011;32318;48.858;8.252;2022-07-06T03:46:21;7.18;;;2.42;;
46597;SDS011;32318;48.858;8.252;2022-07-06T03:54:21;8.90;;;2.20;;
46597;SDS011;32318;48.858;8.252;2022-07-06T04:02:22;5.68;;;2.20;;
46597;SDS011;32318;48.858;8.252;2022-07-06T04:10:22;9.52;;;2.15;;
46597;SDS011;32318;48.858;8.252;2022-07-06T04:18:22;5.78;;;2.38;;
46597;SDS011;32318;48.858;8.252;2022-07-06T04:26:23;7.03;;;2.47;;
46597;SDS011;32318;48.858;8.252;2022-07-06T04:34:23;8.10;;;1.97;;
46597;SDS011;32318;48.858;8.252;2022-07-06T04:42:24;6.78;;;2.72;;
46597;SDS011;32318;48.858;8.252;2022-07-06T04:50:25;8.93;;;2.30;;
46597;SDS011;32318;48.858;8.252;2022-07-06T04:58:25;12.07;;;2.25;;
46597;SDS011;32318;48.858;8.252;2022-07-06T05:06:25;5.75;;;1.83;;
46597;SDS011;32318;48.858;8.252;2022-07-06T05:14:25;5.13;;;1.73;;
46597;SDS011;32318;48.858;8.252;2022-07-06T05:22:26;11.23;;;1.67;;
46597;SDS011;32318;48.858;8.252;2022-07-06T05:30:26;4.13;;;1.70;;
46597;SDS011;32318;48.858;8.252;2022-07-06T05:38:27;7.22;;;1.60;;
46597;SDS011;32318;48.858;8.252;2022-07-06T05:46:27;13.93;;;2.08;;
46597;SDS011;32318;48.858;8.252;2022-07-06T05:54:28;7.00;;;1.73;;
46597;SDS011;32318;48.858;8.252;2022-07-06T06:02:35;11.13;;;1.90;;
46597;SDS011;32318;48.858;8.252;2022-07-06T06:10:37;9.23;;;2.03;;
46597;SDS011;32318;48.858;8.252;2022-07-06T06:18:37;6.63;;;1.90;;
46597;SDS011;32318;48.858;8.252;2022-07-06T06:26:37;7.15;;;1.95;;
46597;SDS011;32318;48.858;8.252;2022-07-06T06:34:38;10.90;;;2.30;;
46597;SDS011;32318;48.858;8.252;2022-07-06T06:42:39;10.02;;;2.80;;
46597;SDS011;32318;48.858;8.252;2022-07-06T06:50:39;8.55;;;2.28;;
46597;SDS011;32318;48.858;8.252;2022-07-06T06:58:39;7.00;;;1.80;;
46597;SDS011;32318;48.858;8.252;2022-07-06T07:06:40;7.25;;;2.08;;
46597;SDS011;32318;48.858;8.252;2022-07-06T07:14:40;9.25;;;1.90;;
46597;SDS011;32318;48.858;8.252;2022-07-06T07:22:41;8.68;;;2.08;;
46597;SDS011;32318;48.858;8.252;2022-07-06T07:30:41;11.35;;;2.50;;
46597;SDS011;32318;48.858;8.252;2022-07-06T07:38:41;9.73;;;1.85;;
46597;SDS011;32318;48.858;8.252;2022-07-06T07:46:41;7.32;;;2.17;;
46597;SDS011;32318;48.858;8.252;2022-07-06T07:54:42;11.60;;;2.25;;
46597;SDS011;32318;48.858;8.252;2022-07-06T08:02:42;7.03;;;2.10;;
46597;SDS011;32318;48.858;8.252;2022-07-06T08:10:42;11.30;;;2.25;;
46597;SDS011;32318;48.858;8.252;2022-07-06T08:18:43;7.75;;;2.00;;
46597;SDS011;32318;48.858;8.252;2022-07-06T08:26:43;7.60;;;2.00;;
46597;SDS011;32318;48.858;8.252;2022-07-06T08:34:43;8.77;;;1.95;;
46597;SDS011;32318;48.858;8.252;2022-07-06T08:42:44;10.23;;;2.33;;
46597;SDS011;32318;48.858;8.252;2022-07-06T08:50:48;11.70;;;2.13;;
46597;SDS011;32318;48.858;8.252;2022-07-06T08:58:49;7.60;;;1.90;;
46597;SDS011;32318;48.858;8.252;2022-07-06T09:06:50;9.20;;;2.00;;
46597;SDS011;32318;48.858;8.252;2022-07-06T09:14:51;8.63;;;2.10;;
46597;SDS011;32318;48.858;8.252;2022-07-06T09:22:57;15.05;;;2.58;;
46597;SDS011;32318;48.858;8.252;2022-07-06T09:31:06;6.65;;;2.35;;
46597;SDS011;32318;48.858;8.252;2022-07-06T09:39:17;7.35;;;1.90;;
46597;SDS011;32318;48.858;8.252;2022-07-06T09:47:19;6.30;;;1.77;;
46597;SDS011;32318;48.858;8.252;2022-07-06T09:55:21;5.03;;;1.63;;
46597;SDS011;32318;48.858;8.252;2022-07-06T10:03:21;5.10;;;1.70;;
46597;SDS011;32318;48.858;8.252;2022-07-06T10:11:22;10.40;;;1.70;;
46597;SDS011;32318;48.858;8.252;2022-07-06T10:19:24;11.70;;;1.90;;
46597;SDS011;32318;48.858;8.252;2022-07-06T10:27:26;7.57;;;1.90;;
46597;SDS011;32318;48.858;8.252;2022-07-06T10:35:26;6.80;;;1.53;;
46597;SDS011;32318;48.858;8.252;2022-07-06T10:43:33;6.95;;;1.90;;
46597;SDS011;32318;48.858;8.252;2022-07-06T10:51:46;10.07;;;2.30;;
46597;SDS011;32318;48.858;8.252;2022-07-06T11:00:00;6.28;;;1.83;;
46597;SDS011;32318;48.858;8.252;2022-07-06T11:08:02;4.95;;;1.88;;
46597;SDS011;32318;48.858;8.252;2022-07-06T11:16:02;5.90;;;1.80;;
46597;SDS011;32318;48.858;8.252;2022-07-06T11:24:06;4.35;;;1.73;;
46597;SDS011;32318;48.858;8.252;2022-07-06T11:32:08;4.82;;;1.70;;
46597;SDS011;32318;48.858;8.252;2022-07-06T11:40:12;6.88;;;1.63;;
46597;SDS011;32318;48.858;8.252;2022-07-06T11:48:13;11.70;;;1.75;;
46597;SDS011;32318;48.858;8.252;2022-07-06T11:56:14;8.02;;;1.77;;
46597;SDS011;32318;48.858;8.252;2022-07-06T12:04:16;5.30;;;1.98;;
46597;SDS011;32318;48.858;8.252;2022-07-06T12:12:17;8.00;;;1.75;;
46597;SDS011;32318;48.858;8.252;2022-07-06T12:20:17;9.88;;;1.60;;
46597;SDS011;32318;48.858;8.252;2022-07-06T12:28:22;7.95;;;1.70;;
46597;SDS011;32318;48.858;8.252;2022-07-06T12:36:23;3.08;;;1.77;;
46597;SDS011;32318;48.858;8.252;2022-07-06T12:44:24;6.00;;;1.33;;
46597;SDS011;32318;48.858;8.252;2022-07-06T12:52:28;3.08;;;1.35;;
46597;SDS011;32318;48.858;8.252;2022-07-06T13:00:28;4.07;;;1.25;;
46597;SDS011;32318;48.858;8.252;2022-07-06T13:08:28;5.55;;;1.25;;
46597;SDS011;32318;48.858;8.252;2022-07-06T13:16:28;3.75;;;1.10;;
46597;SDS011;32318;48.858;8.252;2022-07-06T13:24:34;5.18;;;1.50;;
46597;SDS011;32318;48.858;8.252;2022-07-06T13:32:35;4.75;;;1.10;;
46597;SDS011;32318;48.858;8.252;2022-07-06T13:40:35;7.53;;;1.30;;
46597;SDS011;32318;48.858;8.252;2022-07-06T13:48:35;12.65;;;1.10;;
46597;SDS011;32318;48.858;8.252;2022-07-06T13:56:37;7.40;;;1.10;;
46597;SDS011;32318;48.858;8.252;2022-07-06T14:04:38;3.47;;;1.38;;
46597;SDS011;32318;48.858;8.252;2022-07-06T14:12:39;3.78;;;0.77;;
46597;SDS011;32318;48.858;8.252;2022-07-06T14:20:39;7.63;;;1.05;;
46597;SDS011;32318;48.858;8.252;2022-07-06T14:28:39;4.28;;;0.93;;
46597;SDS011;32318;48.858;8.252;2022-07-06T14:36:39;6.60;;;0.95;;
46597;SDS011;32318;48.858;8.252;2022-07-06T14:44:40;4.55;;;1.00;;
46597;SDS011;32318;48.858;8.252;2022-07-06T14:52:40;5.88;;;1.10;;
46597;SDS011;32318;48.858;8.252;2022-07-06T15:00:41;1.60;;;0.60;;
46597;SDS011;32318;48.858;8.252;2022-07-06T15:08:42;29.35;;;3.35;;
46597;SDS011;32318;48.858;8.252;2022-07-06T15:16:43;2.05;;;0.90;;
46597;SDS011;32318;48.858;8.252;2022-07-06T15:24:44;5.68;;;1.00;;
46597;SDS011;32318;48.858;8.252;2022-07-06T15:32:44;2.53;;;0.93;;
46597;SDS011;32318;48.858;8.252;2022-07-06T15:40:44;8.00;;;1.30;;
46597;SDS011;32318;48.858;8.252;2022-07-06T15:48:47;2.78;;;0.80;;
46597;SDS011;32318;48.858;8.252;2022-07-06T15:56:48;3.28;;;0.70;;
46597;SDS011;32318;48.858;8.252;2022-07-06T16:04:48;9.50;;;0.98;;
46597;SDS011;32318;48.858;8.252;2022-07-06T16:12:48;9.80;;;0.90;;
46597;SDS011;32318;48.858;8.252;2022-07-06T16:20:50;3.67;;;1.10;;
46597;SDS011;32318;48.858;8.252;2022-07-06T16:28:50;3.42;;;0.98;;
46597;SDS011;32318;48.858;8.252;2022-07-06T16:36:51;5.47;;;1.07;;
46597;SDS011;32318;48.858;8.252;2022-07-06T16:44:52;3.95;;;1.10;;
46597;SDS011;32318;48.858;8.252;2022-07-06T16:52:52;4.70;;;1.17;;
46597;SDS011;32318;48.858;8.252;2022-07-06T17:00:52;7.57;;;0.95;;
46597;SDS011;32318;48.858;8.252;2022-07-06T17:08:52;3.25;;;1.40;;
46597;SDS011;32318;48.858;8.252;2022-07-06T17:16:54;9.00;;;0.95;;
46597;SDS011;32318;48.858;8.252;2022-07-06T17:24:55;2.15;;;1.00;;
46597;SDS011;32318;48.858;8.252;2022-07-06T17:32:56;1.48;;;0.77;;
46597;SDS011;32318;48.858;8.252;2022-07-06T17:40:56;12.52;;;1.05;;
46597;SDS011;32318;48.858;8.252;2022-07-06T17:48:56;5.18;;;1.20;;
46597;SDS011;32318;48.858;8.252;2022-07-06T17:56:56;5.55;;;1.15;;
46597;SDS011;32318;48.858;8.252;2022-07-06T18:04:57;7.72;;;1.00;;
46597;SDS011;32318;48.858;8.252;2022-07-06T18:12:57;3.67;;;1.20;;
46597;SDS011;32318;48.858;8.252;2022-07-06T18:20:58;5.03;;;1.33;;
46597;SDS011;32318;48.858;8.252;2022-07-06T18:28:58;2.50;;;0.80;;
46597;SDS011;32318;48.858;8.252;2022-07-06T18:36:59;5.43;;;1.08;;
46597;SDS011;32318;48.858;8.252;2022-07-06T18:44:59;3.22;;;0.80;;
46597;SDS011;32318;48.858;8.252;2022-07-06T18:52:59;7.07;;;1.10;;
46597;SDS011;32318;48.858;8.252;2022-07-06T19:01:00;4.25;;;0.82;;
46597;SDS011;32318;48.858;8.252;2022-07-06T19:09:00;5.63;;;0.90;;
46597;SDS011;32318;48.858;8.252;2022-07-06T19:17:00;4.55;;;0.90;;
46597;SDS011;32318;48.858;8.252;2022-07-06T19:25:01;13.23;;;1.00;;
46597;SDS011;32318;48.858;8.252;2022-07-06T19:33:01;7.32;;;1.48;;
46597;SDS011;32318;48.858;8.252;2022-07-06T19:41:02;8.90;;;1.30;;
46597;SDS011;32318;48.858;8.252;2022-07-06T19:49:02;3.00;;;0.88;;
46597;SDS011;32318;48.858;8.252;2022-07-06T19:57:03;9.80;;;1.10;;
46597;SDS011;32318;48.858;8.252;2022-07-06T20:05:07;8.75;;;1.13;;
46597;SDS011;32318;48.858;8.252;2022-07-06T20:13:07;6.13;;;1.17;;
46597;SDS011;32318;48.858;8.252;2022-07-06T20:21:08;2.10;;;0.70;;
46597;SDS011;32318;48.858;8.252;2022-07-06T20:29:08;5.20;;;1.15;;
46597;SDS011;32318;48.858;8.252;2022-07-06T20:37:09;5.68;;;0.63;;
46597;SDS011;32318;48.858;8.252;2022-07-06T20:45:09;5.38;;;1.42;;
46597;SDS011;32318;48.858;8.252;2022-07-06T20:53:10;4.38;;;1.20;;
46597;SDS011;32318;48.858;8.252;2022-07-06T21:01:10;1.87;;;0.90;;
46597;SDS011;32318;48.858;8.252;2022-07-06T21:09:11;16.42;;;1.20;;
46597;SDS011;32318;48.858;8.252;2022-07-06T21:17:14;8.02;;;1.40;;
46597;SDS011;32318;48.858;8.252;2022-07-06T21:25:16;4.97;;;2.03;;
46597;SDS011;32318;48.858;8.252;2022-07-06T21:33:16;4.43;;;0.80;;
46597;SDS011;32318;48.858;8.252;2022-07-06T21:41:18;2.72;;;1.33;;
46597;SDS011;32318;48.858;8.252;2022-07-06T21:49:18;1.98;;;1.00;;
46597;SDS011;32318;48.858;8.252;2022-07-06T21:57:19;7.00;;;1.27;;
46597;SDS011;32318;48.858;8.252;2022-07-06T22:05:19;8.02;;;1.27;;
46597;SDS011;32318;48.858;8.252;2022-07-06T22:13:20;6.80;;;1.40;;
46597;SDS011;32318;48.858;8.252;2022-07-06T22:21:38;2.88;;;1.08;;
46597;SDS011;32318;48.858;8.252;2022-07-06T22:29:39;3.50;;;1.25;;
46597;SDS011;32318;48.858;8.252;2022-07-06T22:37:39;12.35;;;1.45;;
46597;SDS011;32318;48.858;8.252;2022-07-06T22:45:39;4.20;;;1.50;;
46597;SDS011;32318;48.858;8.252;2022-07-06T22:53:40;3.05;;;1.10;;
46597;SDS011;32318;48.858;8.252;2022-07-06T23:01:40;4.93;;;1.58;;
46597;SDS011;32318;48.858;8.252;2022-07-06T23:09:40;5.97;;;1.10;;
46597;SDS011;32318;48.858;8.252;2022-07-06T23:17:41;7.97;;;1.40;;
46597;SDS011;32318;48.858;8.252;2022-07-06T23:25:41;4.38;;;1.23;;
46597;SDS011;32318;48.858;8.252;2022-07-06T23:33:41;4.43;;;1.35;;
46597;SDS011;32318;48.858;8.252;2022-07-06T23:41:42;4.85;;;1.30;;
46597;SDS011;32318;48.858;8.252;2022-07-06T23:49:42;6.25;;;1.40;;
46597;SDS011;32318;48.858;8.252;2022-07-06T23:57:42;7.82;;;1.30;;
